PUA257 SUMU-LIMC
Flight info
| Callsign | PUA257 |
|---|---|
| Flight time | N/A |
| Altitude | 31000 |
| Route | MOLBI UM540 ITBEB UN857 UDIRA UL206 VUPIP UN857 DOGSU/N0498F330 UN857 GAKAS/N0489F350 UN857 GUNET N857 DEREV/N0475F360 N857 LZR N871 KORAL UG5 SONSO UN871 OSDAM UM985 BARPA M985 PIMOS M445 ARPEX/N0473F380 M445 SOPET M985 BCN N870 DIBER UN870 SOSUR DCT NOSTA DCT ASTIG |
| Aircraft | B77W/H-SDE1E2E3FGHIJ2J3J4J5M1RWXY/LB1D1 |
Departure
| Time | 2026-04-26 01:41 |
|---|---|
| Airport | Carrasco General Cesáreo L. Berisso International Airport (SUMU) |
Arrival
| Time | N/A |
|---|---|
| Airport | Milan Malpensa International Airport (LIMC) |
| Time | Latitude | Longitude | Altitude | Speed | Heading |
|---|---|---|---|---|---|
| 2026-04-26 01:14 | -34.83606 | -56.01814 | 92 ft | 0 kts | 144° |
| 2026-04-26 01:28 | -34.83599 | -56.01821 | 91 ft | 3 kts | 142° |
| 2026-04-26 01:29 | -34.83584 | -56.01837 | 91 ft | 3 kts | 124° |
| 2026-04-26 01:29 | -34.83575 | -56.01859 | 89 ft | 3 kts | 107° |
| 2026-04-26 01:29 | -34.83571 | -56.01882 | 91 ft | 3 kts | 89° |
| 2026-04-26 01:29 | -34.83574 | -56.01906 | 90 ft | 3 kts | 71° |
| 2026-04-26 01:30 | -34.83582 | -56.01928 | 90 ft | 3 kts | 54° |
| 2026-04-26 01:30 | -34.83595 | -56.01945 | 89 ft | 3 kts | 40° |
| 2026-04-26 01:30 | -34.83609 | -56.01960 | 90 ft | 3 kts | 47° |
| 2026-04-26 01:30 | -34.83620 | -56.01977 | 90 ft | 0 kts | 54° |
| 2026-04-26 01:31 | -34.83621 | -56.01977 | 90 ft | 0 kts | 54° |
| 2026-04-26 01:33 | -34.83619 | -56.01975 | 90 ft | 3 kts | 54° |
| 2026-04-26 01:33 | -34.83586 | -56.01919 | 90 ft | 9 kts | 54° |
| 2026-04-26 01:33 | -34.83548 | -56.01855 | 89 ft | 9 kts | 54° |
| 2026-04-26 01:33 | -34.83510 | -56.01791 | 90 ft | 9 kts | 50° |
| 2026-04-26 01:34 | -34.83448 | -56.01773 | 92 ft | 10 kts | 347° |
| 2026-04-26 01:34 | -34.83389 | -56.01815 | 88 ft | 10 kts | 326° |
| 2026-04-26 01:34 | -34.83335 | -56.01855 | 92 ft | 9 kts | 339° |
| 2026-04-26 01:34 | -34.83280 | -56.01826 | 91 ft | 9 kts | 51° |
| 2026-04-26 01:35 | -34.83240 | -56.01764 | 91 ft | 9 kts | 52° |
| 2026-04-26 01:35 | -34.83200 | -56.01701 | 92 ft | 9 kts | 52° |
| 2026-04-26 01:35 | -34.83161 | -56.01638 | 88 ft | 9 kts | 53° |
| 2026-04-26 01:35 | -34.83122 | -56.01576 | 91 ft | 9 kts | 53° |
| 2026-04-26 01:36 | -34.83083 | -56.01512 | 90 ft | 9 kts | 53° |
| 2026-04-26 01:36 | -34.83044 | -56.01449 | 91 ft | 9 kts | 53° |
| 2026-04-26 01:36 | -34.83006 | -56.01385 | 92 ft | 9 kts | 53° |
| 2026-04-26 01:37 | -34.82929 | -56.01257 | 92 ft | 9 kts | 54° |
| 2026-04-26 01:37 | -34.82894 | -56.01200 | 89 ft | 8 kts | 54° |
| 2026-04-26 01:37 | -34.82858 | -56.01156 | 90 ft | 7 kts | 29° |
| 2026-04-26 01:37 | -34.82808 | -56.01146 | 90 ft | 8 kts | 357° |
| 2026-04-26 01:38 | -34.82755 | -56.01155 | 92 ft | 8 kts | 336° |
| 2026-04-26 01:38 | -34.82715 | -56.01197 | 91 ft | 8 kts | 289° |
| 2026-04-26 01:38 | -34.82731 | -56.01260 | 92 ft | 0 kts | 234° |
| 2026-04-26 01:40 | -34.82749 | -56.01290 | 90 ft | 16 kts | 234° |
| 2026-04-26 01:40 | -34.82982 | -56.01673 | 91 ft | 99 kts | 233° |
| 2026-04-26 01:40 | -34.83553 | -56.02612 | 91 ft | 176 kts | 233° |
| 2026-04-26 01:40 | -34.84354 | -56.03938 | 600 ft | 194 kts | 233° |
| 2026-04-26 01:41 | -34.85172 | -56.05251 | 1598 ft | 195 kts | 234° |
| 2026-04-26 01:41 | -34.85674 | -56.06751 | 2191 ft | 197 kts | 272° |
| 2026-04-26 01:41 | -34.85186 | -56.08273 | 2504 ft | 200 kts | 315° |
| 2026-04-26 01:41 | -34.83894 | -56.08969 | 2625 ft | 215 kts | 359° |
| 2026-04-26 01:42 | -34.82423 | -56.08452 | 2843 ft | 230 kts | 30° |
| 2026-04-26 01:42 | -34.81148 | -56.07176 | 3133 ft | 246 kts | 42° |
| 2026-04-26 01:42 | -34.79903 | -56.05689 | 3569 ft | 256 kts | 43° |
| 2026-04-26 01:42 | -34.78632 | -56.04125 | 4093 ft | 265 kts | 44° |
| 2026-04-26 01:43 | -34.77316 | -56.02495 | 4596 ft | 274 kts | 44° |
| 2026-04-26 01:43 | -34.75959 | -56.00813 | 5174 ft | 281 kts | 44° |
| 2026-04-26 01:43 | -34.74579 | -55.99105 | 5827 ft | 285 kts | 44° |
| 2026-04-26 01:43 | -34.73180 | -55.97378 | 6513 ft | 288 kts | 44° |
| 2026-04-26 01:44 | -34.71767 | -55.95637 | 7193 ft | 289 kts | 44° |
| 2026-04-26 01:44 | -34.70352 | -55.93897 | 7889 ft | 290 kts | 43° |
| 2026-04-26 01:44 | -34.68925 | -55.92146 | 8512 ft | 293 kts | 43° |
| 2026-04-26 01:44 | -34.67482 | -55.90377 | 9167 ft | 296 kts | 42° |
| 2026-04-26 01:45 | -34.66024 | -55.88593 | 9824 ft | 298 kts | 42° |
| 2026-04-26 01:45 | -34.64565 | -55.86810 | 10312 ft | 306 kts | 42° |
| 2026-04-26 01:45 | -34.63009 | -55.84914 | 10459 ft | 327 kts | 42° |
| 2026-04-26 01:45 | -34.61353 | -55.82899 | 10610 ft | 348 kts | 42° |
| 2026-04-26 01:46 | -34.59595 | -55.80757 | 10788 ft | 368 kts | 42° |
| 2026-04-26 01:46 | -34.57742 | -55.78499 | 11144 ft | 382 kts | 42° |
| 2026-04-26 01:46 | -34.55843 | -55.76181 | 11658 ft | 391 kts | 42° |
| 2026-04-26 01:46 | -34.53908 | -55.73821 | 12318 ft | 397 kts | 42° |
| 2026-04-26 01:47 | -34.51950 | -55.71433 | 13026 ft | 401 kts | 42° |
| 2026-04-26 01:47 | -34.49968 | -55.69020 | 13727 ft | 405 kts | 42° |
| 2026-04-26 01:47 | -34.47966 | -55.66585 | 14353 ft | 410 kts | 41° |
| 2026-04-26 01:47 | -34.45938 | -55.64123 | 14972 ft | 414 kts | 41° |
| 2026-04-26 01:48 | -34.43918 | -55.61672 | 15581 ft | 418 kts | 41° |